createdAt,value
2023-03-21T00:01:53.812Z,14.15
2023-03-21T00:04:23.558Z,16.60
2023-03-21T00:06:51.583Z,16.20
2023-03-21T00:09:19.965Z,16.85
2023-03-21T00:11:48.444Z,16.90
2023-03-21T00:14:19.018Z,15.10
2023-03-21T00:16:51.743Z,15.88
2023-03-21T00:19:21.096Z,16.60
2023-03-21T00:22:08.869Z,16.05
2023-03-21T00:24:38.035Z,16.40
2023-03-21T00:27:42.969Z,16.25
2023-03-21T00:29:56.635Z,15.40
2023-03-21T00:32:24.952Z,15.07
2023-03-21T00:37:41.525Z,15.82
2023-03-21T00:40:25.474Z,16.20
2023-03-21T00:42:55.737Z,16.15
2023-03-21T00:45:25.190Z,15.40
2023-03-21T00:47:53.417Z,15.75
2023-03-21T00:50:21.503Z,15.07
2023-03-21T00:52:49.581Z,15.43
2023-03-21T00:55:20.133Z,16.77
2023-03-21T00:57:56.164Z,15.82
2023-03-21T01:00:29.872Z,15.27
2023-03-21T01:03:11.224Z,16.48
2023-03-21T01:06:07.256Z,15.50
2023-03-21T01:08:52.096Z,14.85
2023-03-21T01:13:57.944Z,13.25
2023-03-21T01:16:30.396Z,14.10
2023-03-21T01:18:58.376Z,14.15
2023-03-21T01:21:27.684Z,13.82
2023-03-21T01:23:55.834Z,13.27
2023-03-21T01:26:25.032Z,14.48
2023-03-21T01:28:55.304Z,14.25
2023-03-21T01:31:23.648Z,13.75
2023-03-21T01:33:51.605Z,15.02
2023-03-21T01:36:25.242Z,13.93
2023-03-21T01:38:57.179Z,14.43
2023-03-21T01:41:41.895Z,15.55
2023-03-21T01:44:21.968Z,13.77
2023-03-21T01:47:12.156Z,14.65
2023-03-21T01:49:47.950Z,14.50
2023-03-21T01:52:37.000Z,15.63
2023-03-21T01:55:12.767Z,16.08
2023-03-21T01:58:05.211Z,14.98
2023-03-21T02:00:41.649Z,15.43
2023-03-21T02:03:36.140Z,15.40
2023-03-21T02:06:41.202Z,16.38
2023-03-21T02:09:35.667Z,17.42
2023-03-21T02:12:07.287Z,17.35
2023-03-21T02:14:38.297Z,17.15
2023-03-21T02:17:27.047Z,16.63
2023-03-21T02:19:59.502Z,18.10
2023-03-21T02:22:30.907Z,15.75
2023-03-21T02:25:10.783Z,17.20
2023-03-21T02:28:07.885Z,18.90
2023-03-21T02:31:00.353Z,18.20
2023-03-21T02:33:43.563Z,19.05
2023-03-21T02:36:25.685Z,18.67
2023-03-21T02:38:59.502Z,19.50
2023-03-21T02:41:40.169Z,19.35
2023-03-21T02:44:23.231Z,19.55
2023-03-21T02:47:05.268Z,18.70
2023-03-21T02:49:50.555Z,19.80
2023-03-21T02:52:37.431Z,19.48
2023-03-21T02:55:16.257Z,17.88
2023-03-21T02:57:59.256Z,18.88
2023-03-21T03:00:32.873Z,18.20
2023-03-21T03:03:10.096Z,18.20
2023-03-21T03:05:52.386Z,18.65
2023-03-21T03:08:39.419Z,17.45
2023-03-21T03:11:31.229Z,18.00
2023-03-21T03:14:35.748Z,18.70
2023-03-21T03:17:39.457Z,18.83
2023-03-21T03:20:25.742Z,17.70
2023-03-21T03:23:16.923Z,18.30
2023-03-21T03:25:50.118Z,17.42
2023-03-21T03:28:23.388Z,17.23
2023-03-21T03:31:08.174Z,19.25
2023-03-21T03:33:56.390Z,17.42
2023-03-21T03:36:36.791Z,16.23
2023-03-21T03:39:13.770Z,18.55
2023-03-21T03:42:10.246Z,15.65
2023-03-21T03:44:44.058Z,17.58
2023-03-21T03:47:32.308Z,18.45
2023-03-21T03:50:20.752Z,17.08
2023-03-21T03:53:07.173Z,15.82
2023-03-21T03:55:38.808Z,16.25
2023-03-21T03:58:21.566Z,17.50
2023-03-21T04:00:54.298Z,16.55
2023-03-21T04:03:23.299Z,16.92
2023-03-21T04:05:51.738Z,16.70
2023-03-21T04:08:19.802Z,16.25
2023-03-21T04:10:53.209Z,15.10
2023-03-21T04:13:21.929Z,16.60
2023-03-21T04:16:03.793Z,14.90
2023-03-21T04:18:32.303Z,15.55
2023-03-21T04:21:00.492Z,14.98
2023-03-21T04:23:30.808Z,15.45
2023-03-21T04:25:58.870Z,15.00
2023-03-21T04:28:36.382Z,15.15
2023-03-21T04:31:27.154Z,14.98
2023-03-21T04:34:12.160Z,15.63
2023-03-21T04:36:46.865Z,14.73
2023-03-21T04:39:16.126Z,15.18
2023-03-21T04:41:47.520Z,15.43
2023-03-21T04:44:16.723Z,14.13
2023-03-21T04:46:45.204Z,15.77
2023-03-21T04:49:14.144Z,15.40
2023-03-21T04:51:45.230Z,15.25
2023-03-21T04:56:42.939Z,15.70
2023-03-21T04:59:14.136Z,14.57
2023-03-21T05:01:43.677Z,14.27
2023-03-21T05:04:14.379Z,14.30
2023-03-21T05:06:42.896Z,15.57
2023-03-21T05:09:11.736Z,15.82
2023-03-21T05:11:41.191Z,15.40
2023-03-21T05:14:13.824Z,15.73
2023-03-21T05:16:52.977Z,15.13
2023-03-21T05:19:34.892Z,16.27
2023-03-21T05:22:09.504Z,16.52
2023-03-21T05:24:39.382Z,16.05
2023-03-21T05:27:10.423Z,14.90
2023-03-21T05:29:44.273Z,16.00
2023-03-21T05:32:12.782Z,15.00
2023-03-21T05:34:40.846Z,12.57
2023-03-21T05:37:09.026Z,13.70
2023-03-21T05:39:44.686Z,14.02
2023-03-21T05:44:50.267Z,12.20
2023-03-21T05:47:23.091Z,11.95
2023-03-21T05:49:53.194Z,11.15
2023-03-21T05:52:22.503Z,11.23
2023-03-21T05:54:51.036Z,12.13
2023-03-21T05:57:22.716Z,11.95
2023-03-21T05:59:59.549Z,11.90
2023-03-21T06:02:28.855Z,11.77
2023-03-21T06:05:00.769Z,12.73
2023-03-21T06:07:28.698Z,11.82
2023-03-21T06:09:57.047Z,11.70
2023-03-21T06:12:26.128Z,12.05
2023-03-21T06:15:09.333Z,10.95
2023-03-21T06:17:52.794Z,11.35
2023-03-21T06:20:21.517Z,11.45
2023-03-21T06:22:54.189Z,11.35
2023-03-21T06:25:23.036Z,11.15
2023-03-21T06:27:51.129Z,11.13
2023-03-21T06:30:20.131Z,10.73
2023-03-21T06:33:08.082Z,10.90
2023-03-21T06:35:36.287Z,10.82
2023-03-21T06:38:04.669Z,11.00
2023-03-21T06:40:34.811Z,10.35
2023-03-21T06:43:02.918Z,10.20
2023-03-21T06:45:31.364Z,9.80
2023-03-21T06:47:59.456Z,10.05
2023-03-21T06:50:50.358Z,10.30
2023-03-21T06:53:21.159Z,10.48
2023-03-21T06:56:09.545Z,9.93
2023-03-21T06:58:38.332Z,10.05
2023-03-21T07:01:08.147Z,9.50
2023-03-21T07:03:43.941Z,9.48
2023-03-21T07:06:13.424Z,11.50
2023-03-21T07:08:42.154Z,9.20
2023-03-21T07:11:10.722Z,10.48
2023-03-21T07:13:38.709Z,9.82
2023-03-21T07:16:07.629Z,9.05
2023-03-21T07:18:36.844Z,11.38
2023-03-21T07:21:05.143Z,9.93
2023-03-21T07:23:33.165Z,9.55
2023-03-21T07:26:01.626Z,10.40
2023-03-21T07:28:31.359Z,9.68
2023-03-21T07:31:02.759Z,10.25
2023-03-21T07:33:32.197Z,9.70
2023-03-21T07:36:03.239Z,10.40
2023-03-21T07:38:31.862Z,9.65
2023-03-21T07:41:00.892Z,9.52
2023-03-21T07:43:32.383Z,10.32
2023-03-21T07:46:01.138Z,10.38
2023-03-21T07:48:30.373Z,9.50
2023-03-21T07:50:58.454Z,9.50
2023-03-21T07:53:26.562Z,8.85
2023-03-21T07:55:56.639Z,9.07
2023-03-21T07:58:25.732Z,8.20
2023-03-21T08:00:55.747Z,8.88
2023-03-21T08:03:24.167Z,8.63
2023-03-21T08:05:52.324Z,8.45
2023-03-21T08:08:20.804Z,8.55
2023-03-21T08:10:48.800Z,8.48
2023-03-21T08:13:16.926Z,8.13
2023-03-21T08:15:44.889Z,8.20
2023-03-21T08:18:13.065Z,8.07
2023-03-21T08:20:41.250Z,8.63
2023-03-21T08:23:09.520Z,8.35
2023-03-21T08:25:38.913Z,7.95
2023-03-21T08:28:08.246Z,7.53
2023-03-21T08:30:37.811Z,8.20
2023-03-21T08:33:06.150Z,8.10
2023-03-21T08:35:35.372Z,8.25
2023-03-21T08:38:04.824Z,7.97
2023-03-21T08:40:33.936Z,8.05
2023-03-21T08:43:02.014Z,7.63
2023-03-21T08:45:30.475Z,7.55
2023-03-21T08:47:58.571Z,7.32
2023-03-21T08:50:29.671Z,7.40
2023-03-21T08:52:57.672Z,8.07
2023-03-21T08:55:25.849Z,7.72
2023-03-21T08:57:53.937Z,8.05
2023-03-21T09:00:23.698Z,8.85
2023-03-21T09:02:52.591Z,7.75
2023-03-21T09:05:21.582Z,8.18
2023-03-21T09:07:49.908Z,7.15
2023-03-21T09:10:22.207Z,7.53
2023-03-21T09:12:53.001Z,7.32
2023-03-21T09:15:24.539Z,7.18
2023-03-21T09:17:55.914Z,8.20
2023-03-21T09:20:32.962Z,7.40
2023-03-21T09:23:01.979Z,7.18
2023-03-21T09:25:32.042Z,8.07
2023-03-21T09:28:02.022Z,7.35
2023-03-21T09:30:30.191Z,7.68
2023-03-21T09:33:00.701Z,7.10
2023-03-21T09:35:28.906Z,6.65
2023-03-21T09:37:59.681Z,6.68
2023-03-21T09:40:49.356Z,6.28
2023-03-21T09:43:25.062Z,6.43
2023-03-21T09:46:05.801Z,6.03
2023-03-21T09:48:57.145Z,6.30
2023-03-21T09:51:34.981Z,6.05
2023-03-21T09:54:33.508Z,6.28
2023-03-21T09:57:24.921Z,5.72
2023-03-21T09:59:54.826Z,5.88
2023-03-21T10:02:32.338Z,6.03
2023-03-21T10:05:01.213Z,5.93
2023-03-21T10:07:33.892Z,5.78
2023-03-21T10:10:04.652Z,5.22
2023-03-21T10:12:32.951Z,5.95
2023-03-21T10:15:02.100Z,5.93
2023-03-21T10:17:52.024Z,5.82
2023-03-21T10:20:42.910Z,5.88
2023-03-21T10:23:16.189Z,5.65
2023-03-21T10:25:52.817Z,6.28
2023-03-21T10:28:27.965Z,4.95
2023-03-21T10:31:06.399Z,5.97
2023-03-21T10:33:41.649Z,5.78
2023-03-21T10:36:20.845Z,5.07
2023-03-21T10:38:53.882Z,5.20
2023-03-21T10:41:22.037Z,5.35
2023-03-21T10:44:05.253Z,5.18
2023-03-21T10:46:36.144Z,5.30
2023-03-21T10:49:07.354Z,5.10
2023-03-21T10:51:42.033Z,5.55
2023-03-21T10:54:15.934Z,5.65
2023-03-21T10:57:04.881Z,5.17
2023-03-21T10:59:58.125Z,4.88
2023-03-21T11:02:38.370Z,6.22
2023-03-21T11:05:22.600Z,5.47
2023-03-21T11:08:04.564Z,5.15
2023-03-21T11:10:36.925Z,5.68
2023-03-21T11:13:16.670Z,5.70
2023-03-21T11:15:58.564Z,4.57
2023-03-21T11:18:31.263Z,4.72
2023-03-21T11:21:11.864Z,4.32
2023-03-21T11:23:46.971Z,4.97
2023-03-21T11:26:26.261Z,4.03
2023-03-21T11:28:55.144Z,4.47
2023-03-21T11:31:25.170Z,5.10
2023-03-21T11:34:00.093Z,4.57
2023-03-21T11:36:35.389Z,4.60
2023-03-21T11:39:22.696Z,4.95
2023-03-21T11:41:52.765Z,4.72
2023-03-21T11:44:30.274Z,5.10
2023-03-21T11:46:58.829Z,4.32
2023-03-21T11:49:27.813Z,4.60
2023-03-21T11:52:18.377Z,5.05
2023-03-21T11:54:55.427Z,5.20
2023-03-21T11:57:26.628Z,4.90
2023-03-21T12:00:14.838Z,4.60
2023-03-21T12:03:46.887Z,4.70
2023-03-21T12:06:30.509Z,4.80
2023-03-21T12:09:04.540Z,4.88
2023-03-21T12:12:00.551Z,4.95
2023-03-21T12:14:31.651Z,4.75
2023-03-21T12:17:17.732Z,5.50
2023-03-21T12:20:12.134Z,4.90
2023-03-21T12:23:24.532Z,4.53
2023-03-21T12:26:09.998Z,5.20
2023-03-21T12:29:10.295Z,5.20
2023-03-21T12:32:15.481Z,5.22
2023-03-21T12:35:01.634Z,4.97
2023-03-21T12:37:45.367Z,4.65
2023-03-21T12:40:49.324Z,4.93
2023-03-21T12:43:34.311Z,4.70
2023-03-21T12:46:05.802Z,4.82
2023-03-21T12:48:43.409Z,4.45
2023-03-21T12:51:15.842Z,4.60
2023-03-21T12:54:08.778Z,4.40
2023-03-21T12:57:04.573Z,5.32
2023-03-21T12:59:43.091Z,4.50
2023-03-21T13:02:20.373Z,4.43
2023-03-21T13:05:12.813Z,4.72
2023-03-21T13:07:44.468Z,4.05
2023-03-21T13:10:24.264Z,3.90
2023-03-21T13:13:04.895Z,4.30
2023-03-21T13:15:55.822Z,4.82
2023-03-21T13:19:17.747Z,5.03
2023-03-21T13:22:10.279Z,4.53
2023-03-21T13:24:59.427Z,4.53
2023-03-21T13:27:30.517Z,4.10
2023-03-21T13:30:18.153Z,4.78
2023-03-21T13:32:51.905Z,4.75
2023-03-21T13:35:29.101Z,4.60
2023-03-21T13:38:12.813Z,5.10
2023-03-21T13:41:03.249Z,4.25
2023-03-21T13:44:05.881Z,4.80
2023-03-21T13:46:58.234Z,4.72
2023-03-21T13:49:35.346Z,4.25
2023-03-21T13:52:09.391Z,4.80
2023-03-21T13:54:53.341Z,4.93
2023-03-21T13:57:32.072Z,5.28
2023-03-21T14:00:30.353Z,4.38
2023-03-21T14:03:08.504Z,4.78
2023-03-21T14:05:38.908Z,4.63
2023-03-21T14:08:24.788Z,4.68
2023-03-21T14:11:04.065Z,4.40
2023-03-21T14:13:35.028Z,4.35
2023-03-21T14:16:16.897Z,3.97
2023-03-21T14:18:55.632Z,4.55
2023-03-21T14:21:26.614Z,4.85
2023-03-21T14:24:14.384Z,4.95
2023-03-21T14:26:46.073Z,4.45
2023-03-21T14:29:35.307Z,4.18
2023-03-21T14:32:05.692Z,4.50
2023-03-21T14:34:36.103Z,4.53
2023-03-21T14:37:10.721Z,4.32
2023-03-21T14:42:13.792Z,4.75
2023-03-21T14:44:54.943Z,4.95
2023-03-21T14:47:27.434Z,4.75
2023-03-21T14:49:56.915Z,5.55
2023-03-21T14:52:33.272Z,4.68
2023-03-21T14:55:07.943Z,5.07
2023-03-21T15:00:13.670Z,5.15
2023-03-21T15:02:44.748Z,5.13
2023-03-21T15:05:25.175Z,5.88
2023-03-21T15:07:58.654Z,4.57
2023-03-21T15:10:30.826Z,4.93
2023-03-21T15:13:01.306Z,5.30
2023-03-21T15:15:32.152Z,5.40
2023-03-21T15:18:05.951Z,5.40
2023-03-21T15:20:37.810Z,4.80
2023-03-21T15:23:26.481Z,4.70
2023-03-21T15:25:55.539Z,5.30
2023-03-21T15:28:25.769Z,5.40
2023-03-21T15:30:55.148Z,4.90
2023-03-21T15:33:25.928Z,5.30
2023-03-21T15:35:56.857Z,5.43
2023-03-21T15:38:55.044Z,5.50
2023-03-21T15:41:23.154Z,4.50
2023-03-21T15:44:11.435Z,5.47
2023-03-21T15:46:46.207Z,5.20
2023-03-21T15:52:05.475Z,5.32
2023-03-21T15:54:55.583Z,5.07
2023-03-21T15:57:33.190Z,4.85
2023-03-21T16:00:14.536Z,5.10
2023-03-21T16:02:43.021Z,5.22
2023-03-21T16:05:29.298Z,5.75
2023-03-21T16:08:27.431Z,5.18
2023-03-21T16:11:05.766Z,5.32
2023-03-21T16:13:33.736Z,5.00
2023-03-21T16:16:02.113Z,4.80
2023-03-21T16:18:31.913Z,4.57
2023-03-21T16:21:00.019Z,4.75
2023-03-21T16:23:28.755Z,5.05
2023-03-21T16:25:58.954Z,5.40
2023-03-21T16:28:26.940Z,4.80
2023-03-21T16:30:54.998Z,5.22
2023-03-21T16:33:25.504Z,5.38
2023-03-21T16:35:57.467Z,8.35
2023-03-21T16:38:28.655Z,9.77
2023-03-21T16:40:56.770Z,6.65
2023-03-21T16:43:25.422Z,6.82
2023-03-21T16:45:53.523Z,5.72
2023-03-21T16:48:21.611Z,5.78
2023-03-21T16:50:49.838Z,5.97
2023-03-21T16:53:18.004Z,6.35
2023-03-21T16:55:46.254Z,5.72
2023-03-21T16:58:16.861Z,6.03
2023-03-21T17:00:45.059Z,6.45
2023-03-21T17:03:21.826Z,6.50
2023-03-21T17:05:50.541Z,7.18
2023-03-21T17:08:22.044Z,7.32
2023-03-21T17:10:51.591Z,7.60
2023-03-21T17:13:19.526Z,7.95
2023-03-21T17:15:47.513Z,7.30
2023-03-21T17:18:15.993Z,6.85
2023-03-21T17:20:44.032Z,7.07
2023-03-21T17:23:12.004Z,8.02
2023-03-21T17:25:39.967Z,8.02
2023-03-21T17:28:07.998Z,8.10
2023-03-21T17:30:40.011Z,8.68
2023-03-21T17:33:08.441Z,8.07
2023-03-21T17:35:36.330Z,8.98
2023-03-21T17:38:17.198Z,8.85
2023-03-21T17:40:45.403Z,9.68
2023-03-21T17:43:20.392Z,10.48
2023-03-21T17:45:48.508Z,10.13
2023-03-21T17:48:16.799Z,10.45
2023-03-21T17:50:45.319Z,10.20
2023-03-21T17:53:13.362Z,10.23
2023-03-21T17:55:41.381Z,10.55
2023-03-21T17:58:10.660Z,9.63
2023-03-21T18:00:40.737Z,10.57
2023-03-21T18:03:08.886Z,10.07
2023-03-21T18:05:37.522Z,12.65
2023-03-21T18:08:10.834Z,16.17
2023-03-21T18:10:41.312Z,12.77
2023-03-21T18:13:09.836Z,10.80
2023-03-21T18:15:38.406Z,10.25
2023-03-21T18:18:06.863Z,11.13
2023-03-21T18:20:51.311Z,11.00
2023-03-21T18:23:20.785Z,11.07
2023-03-21T18:25:52.559Z,11.52
2023-03-21T18:28:22.346Z,11.02
2023-03-21T18:31:08.481Z,11.63
2023-03-21T18:33:40.530Z,10.50
2023-03-21T18:36:10.549Z,11.05
2023-03-21T18:38:39.404Z,10.07
2023-03-21T18:41:08.817Z,10.20
2023-03-21T18:46:25.921Z,8.90
2023-03-21T18:48:53.918Z,9.68
2023-03-21T18:51:22.830Z,9.63
2023-03-21T18:53:51.501Z,9.82
2023-03-21T18:57:05.960Z,9.23
2023-03-21T18:59:08.547Z,9.65
2023-03-21T19:01:36.620Z,9.05
2023-03-21T19:04:22.959Z,9.45
2023-03-21T19:06:53.348Z,8.25
2023-03-21T19:09:29.451Z,8.73
2023-03-21T19:12:01.966Z,8.80
2023-03-21T19:14:30.142Z,8.60
2023-03-21T19:17:55.889Z,8.43
2023-03-21T19:19:47.879Z,7.78
2023-03-21T19:22:16.274Z,7.32
2023-03-21T19:24:44.451Z,7.80
2023-03-21T19:27:13.255Z,7.28
2023-03-21T19:29:41.533Z,7.00
2023-03-21T19:32:09.455Z,6.57
2023-03-21T19:34:37.518Z,7.13
2023-03-21T19:37:06.029Z,7.15
2023-03-21T19:39:34.131Z,6.90
2023-03-21T19:42:15.707Z,6.50
2023-03-21T19:44:45.279Z,6.32
2023-03-21T19:47:13.551Z,7.25
2023-03-21T19:52:29.790Z,6.45
2023-03-21T19:54:57.997Z,6.78
2023-03-21T19:57:25.937Z,6.80
2023-03-21T19:59:54.931Z,6.75
2023-03-21T20:02:35.140Z,7.03
2023-03-21T20:05:08.096Z,7.53
2023-03-21T20:07:36.341Z,6.88
2023-03-21T20:10:05.867Z,7.00
2023-03-21T20:12:34.136Z,7.28
2023-03-21T20:15:16.591Z,7.18
2023-03-21T20:17:46.572Z,7.07
2023-03-21T20:20:17.437Z,6.97
2023-03-21T20:23:06.400Z,7.13
2023-03-21T20:25:38.854Z,6.82
2023-03-21T20:28:15.802Z,6.43
2023-03-21T20:30:53.539Z,7.03
2023-03-21T20:33:22.153Z,7.57
2023-03-21T20:38:43.609Z,6.85
2023-03-21T20:41:12.032Z,6.60
2023-03-21T20:46:28.494Z,7.07
2023-03-21T20:48:58.352Z,6.63
2023-03-21T20:54:16.010Z,6.85
2023-03-21T20:56:44.635Z,7.13
2023-03-21T20:59:23.231Z,7.10
2023-03-21T21:01:54.411Z,6.88
2023-03-21T21:04:23.207Z,6.55
2023-03-21T21:06:59.080Z,6.30
2023-03-21T21:09:27.054Z,6.90
2023-03-21T21:12:10.963Z,5.85
2023-03-21T21:14:39.287Z,5.80
2023-03-21T21:17:24.577Z,5.10
2023-03-21T21:19:55.475Z,4.82
2023-03-21T21:22:23.641Z,5.00
2023-03-21T21:24:51.847Z,5.38
2023-03-21T21:27:20.100Z,5.07
2023-03-21T21:29:50.041Z,5.28
2023-03-21T21:32:19.310Z,4.93
2023-03-21T21:34:48.101Z,4.90
2023-03-21T21:37:16.128Z,4.80
2023-03-21T21:39:44.613Z,5.90
2023-03-21T21:42:13.573Z,5.20
2023-03-21T21:44:44.700Z,5.97
2023-03-21T21:47:13.476Z,6.50
2023-03-21T21:49:41.912Z,6.70
2023-03-21T21:52:13.593Z,6.95
2023-03-21T21:54:45.714Z,7.18
2023-03-21T21:57:13.943Z,7.65
2023-03-21T21:59:42.024Z,7.70
2023-03-21T22:02:14.141Z,8.02
2023-03-21T22:04:43.001Z,7.72
2023-03-21T22:07:14.686Z,9.20
2023-03-21T22:09:44.469Z,7.75
2023-03-21T22:12:12.446Z,7.65
2023-03-21T22:14:40.502Z,9.30
2023-03-21T22:17:08.776Z,8.90
2023-03-21T22:19:37.839Z,8.70
2023-03-21T22:22:07.774Z,8.15
2023-03-21T22:24:36.051Z,7.57
2023-03-21T22:27:04.566Z,7.45
2023-03-21T22:29:32.725Z,7.93
2023-03-21T22:32:00.861Z,8.43
2023-03-21T22:34:28.950Z,8.10
2023-03-21T22:37:00.139Z,7.47
2023-03-21T22:39:28.736Z,7.75
2023-03-21T22:42:03.247Z,7.78
2023-03-21T22:44:34.993Z,7.15
2023-03-21T22:47:05.321Z,7.18
2023-03-21T22:49:33.700Z,8.25
2023-03-21T22:52:03.395Z,7.28
2023-03-21T22:54:32.331Z,8.05
2023-03-21T22:57:00.267Z,8.00
2023-03-21T22:59:28.977Z,7.97
2023-03-21T23:01:57.013Z,7.43
2023-03-21T23:04:27.306Z,8.32
2023-03-21T23:06:55.531Z,7.85
2023-03-21T23:09:23.899Z,8.07
2023-03-21T23:11:51.845Z,7.75
2023-03-21T23:14:21.100Z,6.97
2023-03-21T23:16:52.261Z,6.47
2023-03-21T23:19:21.812Z,6.60
2023-03-21T23:21:50.178Z,6.47
2023-03-21T23:24:18.162Z,5.82
2023-03-21T23:26:46.379Z,6.55
2023-03-21T23:29:14.420Z,6.05
2023-03-21T23:31:42.286Z,6.90
2023-03-21T23:34:12.307Z,6.50
2023-03-21T23:36:40.783Z,5.57
2023-03-21T23:39:09.249Z,6.18
2023-03-21T23:41:37.215Z,5.07
2023-03-21T23:44:05.970Z,5.10
2023-03-21T23:46:34.023Z,4.70
2023-03-21T23:49:02.086Z,4.70
2023-03-21T23:51:29.913Z,4.07
2023-03-21T23:53:58.608Z,4.32
2023-03-21T23:56:27.466Z,4.07
2023-03-21T23:58:57.097Z,4.13
